sensor_id;sensor_type;location;lat;lon;timestamp;P1;durP1;ratioP1;P2;durP2;ratioP2
5871;SDS011;2962;51.312;7.378;2023-01-04T00:01:01;3.50;;;2.30;;
5871;SDS011;2962;51.312;7.378;2023-01-04T00:03:27;3.13;;;1.60;;
5871;SDS011;2962;51.312;7.378;2023-01-04T00:05:52;3.87;;;1.50;;
5871;SDS011;2962;51.312;7.378;2023-01-04T00:08:18;1.83;;;1.10;;
5871;SDS011;2962;51.312;7.378;2023-01-04T00:10:44;5.73;;;2.00;;
5871;SDS011;2962;51.312;7.378;2023-01-04T00:13:09;9.77;;;1.50;;
5871;SDS011;2962;51.312;7.378;2023-01-04T00:15:34;3.13;;;1.50;;
5871;SDS011;2962;51.312;7.378;2023-01-04T00:17:59;3.83;;;1.47;;
5871;SDS011;2962;51.312;7.378;2023-01-04T00:20:25;3.10;;;1.20;;
5871;SDS011;2962;51.312;7.378;2023-01-04T00:22:50;12.27;;;1.37;;
5871;SDS011;2962;51.312;7.378;2023-01-04T00:25:15;1.90;;;1.33;;
5871;SDS011;2962;51.312;7.378;2023-01-04T00:27:41;1.00;;;1.00;;
5871;SDS011;2962;51.312;7.378;2023-01-04T00:30:06;2.53;;;1.00;;
5871;SDS011;2962;51.312;7.378;2023-01-04T00:32:32;2.17;;;1.10;;
5871;SDS011;2962;51.312;7.378;2023-01-04T00:34:57;2.43;;;1.43;;
5871;SDS011;2962;51.312;7.378;2023-01-04T00:37:23;3.20;;;1.27;;
5871;SDS011;2962;51.312;7.378;2023-01-04T00:39:48;2.90;;;1.10;;
5871;SDS011;2962;51.312;7.378;2023-01-04T00:42:13;3.30;;;1.40;;
5871;SDS011;2962;51.312;7.378;2023-01-04T00:44:38;4.40;;;1.07;;
5871;SDS011;2962;51.312;7.378;2023-01-04T00:47:04;3.80;;;1.00;;
5871;SDS011;2962;51.312;7.378;2023-01-04T00:49:29;1.57;;;1.47;;
5871;SDS011;2962;51.312;7.378;2023-01-04T00:51:55;3.83;;;1.27;;
5871;SDS011;2962;51.312;7.378;2023-01-04T00:54:21;1.40;;;1.30;;
5871;SDS011;2962;51.312;7.378;2023-01-04T00:56:47;5.60;;;1.33;;
5871;SDS011;2962;51.312;7.378;2023-01-04T00:59:14;1.67;;;1.03;;
5871;SDS011;2962;51.312;7.378;2023-01-04T01:01:40;3.27;;;1.03;;
5871;SDS011;2962;51.312;7.378;2023-01-04T01:04:08;2.08;;;0.93;;
5871;SDS011;2962;51.312;7.378;2023-01-04T01:06:36;3.85;;;1.58;;
5871;SDS011;2962;51.312;7.378;2023-01-04T01:09:03;4.60;;;1.20;;
5871;SDS011;2962;51.312;7.378;2023-01-04T01:11:28;2.58;;;1.17;;
5871;SDS011;2962;51.312;7.378;2023-01-04T01:13:54;2.77;;;1.90;;
5871;SDS011;2962;51.312;7.378;2023-01-04T01:16:21;3.53;;;1.30;;
5871;SDS011;2962;51.312;7.378;2023-01-04T01:18:47;2.33;;;1.23;;
5871;SDS011;2962;51.312;7.378;2023-01-04T01:21:17;2.33;;;1.07;;
5871;SDS011;2962;51.312;7.378;2023-01-04T01:23:44;2.60;;;1.30;;
5871;SDS011;2962;51.312;7.378;2023-01-04T01:26:12;5.22;;;1.05;;
5871;SDS011;2962;51.312;7.378;2023-01-04T01:28:38;3.58;;;1.58;;
5871;SDS011;2962;51.312;7.378;2023-01-04T01:31:05;3.23;;;1.33;;
5871;SDS011;2962;51.312;7.378;2023-01-04T01:33:31;2.93;;;1.07;;
5871;SDS011;2962;51.312;7.378;2023-01-04T01:36:00;4.17;;;1.50;;
5871;SDS011;2962;51.312;7.378;2023-01-04T01:38:26;3.50;;;1.33;;
5871;SDS011;2962;51.312;7.378;2023-01-04T01:40:51;4.90;;;1.40;;
5871;SDS011;2962;51.312;7.378;2023-01-04T01:43:22;5.33;;;1.50;;
5871;SDS011;2962;51.312;7.378;2023-01-04T01:45:48;2.00;;;1.00;;
5871;SDS011;2962;51.312;7.378;2023-01-04T01:48:20;5.40;;;1.67;;
5871;SDS011;2962;51.312;7.378;2023-01-04T01:50:52;3.17;;;1.70;;
5871;SDS011;2962;51.312;7.378;2023-01-04T01:53:19;2.60;;;1.50;;
5871;SDS011;2962;51.312;7.378;2023-01-04T01:55:45;3.50;;;1.90;;
5871;SDS011;2962;51.312;7.378;2023-01-04T01:58:17;1.38;;;1.08;;
5871;SDS011;2962;51.312;7.378;2023-01-04T02:00:48;7.65;;;1.25;;
5871;SDS011;2962;51.312;7.378;2023-01-04T02:03:15;4.53;;;1.03;;
5871;SDS011;2962;51.312;7.378;2023-01-04T02:05:43;3.22;;;1.40;;
5871;SDS011;2962;51.312;7.378;2023-01-04T02:08:10;2.57;;;1.77;;
5871;SDS011;2962;51.312;7.378;2023-01-04T02:10:37;9.77;;;1.67;;
5871;SDS011;2962;51.312;7.378;2023-01-04T02:13:04;5.20;;;2.20;;
5871;SDS011;2962;51.312;7.378;2023-01-04T02:15:43;1.73;;;1.38;;
5871;SDS011;2962;51.312;7.378;2023-01-04T02:18:20;8.15;;;2.03;;
5871;SDS011;2962;51.312;7.378;2023-01-04T02:26:42;9.43;;;1.80;;
5871;SDS011;2962;51.312;7.378;2023-01-04T02:35:02;2.07;;;1.33;;
5871;SDS011;2962;51.312;7.378;2023-01-04T02:37:39;7.15;;;2.40;;
5871;SDS011;2962;51.312;7.378;2023-01-04T02:40:20;6.10;;;1.70;;
5871;SDS011;2962;51.312;7.378;2023-01-04T02:43:10;8.07;;;1.43;;
5871;SDS011;2962;51.312;7.378;2023-01-04T02:46:03;5.35;;;2.42;;
5871;SDS011;2962;51.312;7.378;2023-01-04T02:48:35;11.90;;;2.17;;
5871;SDS011;2962;51.312;7.378;2023-01-04T02:51:33;2.50;;;1.85;;
5871;SDS011;2962;51.312;7.378;2023-01-04T02:54:05;4.00;;;2.00;;
5871;SDS011;2962;51.312;7.378;2023-01-04T03:05:14;7.43;;;1.93;;
5871;SDS011;2962;51.312;7.378;2023-01-04T03:08:05;7.40;;;2.20;;
5871;SDS011;2962;51.312;7.378;2023-01-04T03:10:44;3.97;;;2.00;;
5871;SDS011;2962;51.312;7.378;2023-01-04T03:13:23;3.00;;;2.15;;
5871;SDS011;2962;51.312;7.378;2023-01-04T03:15:54;2.67;;;2.28;;
5871;SDS011;2962;51.312;7.378;2023-01-04T03:18:29;2.40;;;2.20;;
5871;SDS011;2962;51.312;7.378;2023-01-04T03:20:58;11.23;;;2.23;;
5871;SDS011;2962;51.312;7.378;2023-01-04T03:23:26;4.83;;;2.80;;
5871;SDS011;2962;51.312;7.378;2023-01-04T03:26:18;4.63;;;2.67;;
5871;SDS011;2962;51.312;7.378;2023-01-04T03:29:09;4.10;;;2.30;;
5871;SDS011;2962;51.312;7.378;2023-01-04T03:31:59;3.43;;;2.37;;
5871;SDS011;2962;51.312;7.378;2023-01-04T03:34:47;4.60;;;2.93;;
5871;SDS011;2962;51.312;7.378;2023-01-04T03:37:47;7.10;;;2.47;;
5871;SDS011;2962;51.312;7.378;2023-01-04T03:43:08;6.47;;;2.33;;
5871;SDS011;2962;51.312;7.378;2023-01-04T03:46:04;3.27;;;2.27;;
5871;SDS011;2962;51.312;7.378;2023-01-04T03:49:15;2.17;;;2.07;;
5871;SDS011;2962;51.312;7.378;2023-01-04T03:51:49;3.37;;;2.23;;
5871;SDS011;2962;51.312;7.378;2023-01-04T03:54:19;2.93;;;2.50;;
5871;SDS011;2962;51.312;7.378;2023-01-04T03:56:48;3.97;;;3.33;;
5871;SDS011;2962;51.312;7.378;2023-01-04T03:59:16;3.47;;;2.50;;
5871;SDS011;2962;51.312;7.378;2023-01-04T04:01:41;26.83;;;3.90;;
5871;SDS011;2962;51.312;7.378;2023-01-04T04:04:08;5.93;;;3.10;;
5871;SDS011;2962;51.312;7.378;2023-01-04T04:06:52;6.93;;;3.07;;
5871;SDS011;2962;51.312;7.378;2023-01-04T04:09:36;4.73;;;3.10;;
5871;SDS011;2962;51.312;7.378;2023-01-04T04:12:01;3.03;;;2.93;;
5871;SDS011;2962;51.312;7.378;2023-01-04T04:14:26;3.60;;;2.67;;
5871;SDS011;2962;51.312;7.378;2023-01-04T04:16:52;6.83;;;3.43;;
5871;SDS011;2962;51.312;7.378;2023-01-04T04:19:17;5.10;;;2.97;;
5871;SDS011;2962;51.312;7.378;2023-01-04T04:21:42;3.20;;;3.00;;
5871;SDS011;2962;51.312;7.378;2023-01-04T04:24:15;4.93;;;2.83;;
5871;SDS011;2962;51.312;7.378;2023-01-04T04:26:43;7.00;;;3.40;;
5871;SDS011;2962;51.312;7.378;2023-01-04T04:29:08;4.00;;;3.40;;
5871;SDS011;2962;51.312;7.378;2023-01-04T04:31:33;3.30;;;3.10;;
5871;SDS011;2962;51.312;7.378;2023-01-04T04:33:59;4.03;;;3.17;;
5871;SDS011;2962;51.312;7.378;2023-01-04T04:36:24;4.30;;;3.10;;
5871;SDS011;2962;51.312;7.378;2023-01-04T04:38:51;4.37;;;3.90;;
5871;SDS011;2962;51.312;7.378;2023-01-04T04:41:16;5.83;;;2.97;;
5871;SDS011;2962;51.312;7.378;2023-01-04T04:43:59;5.77;;;2.80;;
5871;SDS011;2962;51.312;7.378;2023-01-04T04:46:25;4.00;;;2.80;;
5871;SDS011;2962;51.312;7.378;2023-01-04T04:48:50;3.20;;;2.60;;
5871;SDS011;2962;51.312;7.378;2023-01-04T04:51:16;2.80;;;2.60;;
5871;SDS011;2962;51.312;7.378;2023-01-04T04:53:41;4.30;;;2.60;;
5871;SDS011;2962;51.312;7.378;2023-01-04T04:56:07;9.57;;;2.60;;
5871;SDS011;2962;51.312;7.378;2023-01-04T04:58:33;3.43;;;2.77;;
5871;SDS011;2962;51.312;7.378;2023-01-04T05:00:58;2.10;;;2.00;;
5871;SDS011;2962;51.312;7.378;2023-01-04T05:03:24;3.43;;;3.13;;
5871;SDS011;2962;51.312;7.378;2023-01-04T05:05:49;6.73;;;1.97;;
5871;SDS011;2962;51.312;7.378;2023-01-04T05:08:15;3.33;;;2.10;;
5871;SDS011;2962;51.312;7.378;2023-01-04T05:10:40;3.90;;;2.00;;
5871;SDS011;2962;51.312;7.378;2023-01-04T05:13:05;4.60;;;1.70;;
5871;SDS011;2962;51.312;7.378;2023-01-04T05:15:39;2.30;;;1.67;;
5871;SDS011;2962;51.312;7.378;2023-01-04T05:18:06;1.93;;;1.83;;
5871;SDS011;2962;51.312;7.378;2023-01-04T05:20:33;1.57;;;1.47;;
5871;SDS011;2962;51.312;7.378;2023-01-04T05:22:59;5.60;;;2.37;;
5871;SDS011;2962;51.312;7.378;2023-01-04T05:25:24;2.00;;;1.40;;
5871;SDS011;2962;51.312;7.378;2023-01-04T05:27:50;1.47;;;1.47;;
5871;SDS011;2962;51.312;7.378;2023-01-04T05:30:15;2.57;;;1.57;;
5871;SDS011;2962;51.312;7.378;2023-01-04T05:33:00;3.40;;;1.73;;
5871;SDS011;2962;51.312;7.378;2023-01-04T05:35:25;3.13;;;1.87;;
5871;SDS011;2962;51.312;7.378;2023-01-04T05:37:51;1.87;;;1.87;;
5871;SDS011;2962;51.312;7.378;2023-01-04T05:40:16;2.03;;;1.93;;
5871;SDS011;2962;51.312;7.378;2023-01-04T05:42:42;5.23;;;1.93;;
5871;SDS011;2962;51.312;7.378;2023-01-04T05:45:07;2.23;;;2.03;;
5871;SDS011;2962;51.312;7.378;2023-01-04T05:47:33;1.20;;;1.20;;
5871;SDS011;2962;51.312;7.378;2023-01-04T05:49:59;1.50;;;1.40;;
5871;SDS011;2962;51.312;7.378;2023-01-04T05:52:24;4.07;;;1.90;;
5871;SDS011;2962;51.312;7.378;2023-01-04T05:54:50;1.60;;;1.50;;
5871;SDS011;2962;51.312;7.378;2023-01-04T05:57:15;2.00;;;1.90;;
5871;SDS011;2962;51.312;7.378;2023-01-04T05:59:42;1.30;;;1.30;;
5871;SDS011;2962;51.312;7.378;2023-01-04T06:02:12;1.70;;;1.07;;
5871;SDS011;2962;51.312;7.378;2023-01-04T06:04:45;1.43;;;1.00;;
5871;SDS011;2962;51.312;7.378;2023-01-04T06:07:11;1.97;;;1.17;;
5871;SDS011;2962;51.312;7.378;2023-01-04T06:09:37;1.40;;;1.40;;
5871;SDS011;2962;51.312;7.378;2023-01-04T06:12:03;0.87;;;0.87;;
5871;SDS011;2962;51.312;7.378;2023-01-04T06:14:28;0.93;;;0.93;;
5871;SDS011;2962;51.312;7.378;2023-01-04T06:16:54;2.73;;;1.00;;
5871;SDS011;2962;51.312;7.378;2023-01-04T06:19:19;1.17;;;1.07;;
5871;SDS011;2962;51.312;7.378;2023-01-04T06:21:44;1.70;;;0.63;;
5871;SDS011;2962;51.312;7.378;2023-01-04T06:24:10;0.80;;;0.80;;
5871;SDS011;2962;51.312;7.378;2023-01-04T06:26:35;0.60;;;0.60;;
5871;SDS011;2962;51.312;7.378;2023-01-04T06:29:01;2.10;;;0.90;;
5871;SDS011;2962;51.312;7.378;2023-01-04T06:31:26;0.50;;;0.50;;
5871;SDS011;2962;51.312;7.378;2023-01-04T06:33:51;0.57;;;0.57;;
5871;SDS011;2962;51.312;7.378;2023-01-04T06:36:17;0.40;;;0.40;;
5871;SDS011;2962;51.312;7.378;2023-01-04T06:38:42;0.60;;;0.60;;
5871;SDS011;2962;51.312;7.378;2023-01-04T06:41:07;0.60;;;0.60;;
5871;SDS011;2962;51.312;7.378;2023-01-04T06:43:32;0.73;;;0.47;;
5871;SDS011;2962;51.312;7.378;2023-01-04T06:45:58;1.70;;;0.57;;
5871;SDS011;2962;51.312;7.378;2023-01-04T06:48:25;0.40;;;0.40;;
5871;SDS011;2962;51.312;7.378;2023-01-04T06:50:51;0.93;;;0.73;;
5871;SDS011;2962;51.312;7.378;2023-01-04T06:53:16;0.70;;;0.70;;
5871;SDS011;2962;51.312;7.378;2023-01-04T06:55:45;0.40;;;0.40;;
5871;SDS011;2962;51.312;7.378;2023-01-04T06:58:10;0.50;;;0.50;;
5871;SDS011;2962;51.312;7.378;2023-01-04T07:00:35;0.70;;;0.70;;
5871;SDS011;2962;51.312;7.378;2023-01-04T07:03:01;0.63;;;0.63;;
5871;SDS011;2962;51.312;7.378;2023-01-04T07:05:26;0.50;;;0.50;;
5871;SDS011;2962;51.312;7.378;2023-01-04T07:07:51;0.50;;;0.50;;
5871;SDS011;2962;51.312;7.378;2023-01-04T07:10:17;1.03;;;0.50;;
5871;SDS011;2962;51.312;7.378;2023-01-04T07:12:42;0.63;;;0.63;;
5871;SDS011;2962;51.312;7.378;2023-01-04T07:15:07;0.70;;;0.70;;
5871;SDS011;2962;51.312;7.378;2023-01-04T07:17:33;0.57;;;0.57;;
5871;SDS011;2962;51.312;7.378;2023-01-04T07:19:58;0.67;;;0.67;;
5871;SDS011;2962;51.312;7.378;2023-01-04T07:22:25;0.53;;;0.53;;
5871;SDS011;2962;51.312;7.378;2023-01-04T07:24:50;1.40;;;0.90;;
5871;SDS011;2962;51.312;7.378;2023-01-04T07:27:15;0.90;;;0.90;;
5871;SDS011;2962;51.312;7.378;2023-01-04T07:29:40;0.67;;;0.60;;
5871;SDS011;2962;51.312;7.378;2023-01-04T07:32:08;1.37;;;0.50;;
5871;SDS011;2962;51.312;7.378;2023-01-04T07:34:34;1.13;;;1.13;;
5871;SDS011;2962;51.312;7.378;2023-01-04T07:36:59;0.50;;;0.50;;
5871;SDS011;2962;51.312;7.378;2023-01-04T07:39:24;0.60;;;0.60;;
5871;SDS011;2962;51.312;7.378;2023-01-04T07:41:50;0.50;;;0.50;;
5871;SDS011;2962;51.312;7.378;2023-01-04T07:44:15;0.57;;;0.57;;
5871;SDS011;2962;51.312;7.378;2023-01-04T07:46:42;0.80;;;0.80;;
5871;SDS011;2962;51.312;7.378;2023-01-04T07:49:10;0.90;;;0.90;;
5871;SDS011;2962;51.312;7.378;2023-01-04T07:51:37;0.90;;;0.90;;
5871;SDS011;2962;51.312;7.378;2023-01-04T07:54:02;3.20;;;0.97;;
5871;SDS011;2962;51.312;7.378;2023-01-04T07:56:28;2.20;;;1.10;;
5871;SDS011;2962;51.312;7.378;2023-01-04T07:58:53;1.37;;;0.90;;
5871;SDS011;2962;51.312;7.378;2023-01-04T08:01:23;1.17;;;1.17;;
5871;SDS011;2962;51.312;7.378;2023-01-04T08:03:49;1.80;;;0.80;;
5871;SDS011;2962;51.312;7.378;2023-01-04T08:06:15;1.10;;;1.10;;
5871;SDS011;2962;51.312;7.378;2023-01-04T08:08:41;1.40;;;1.30;;
5871;SDS011;2962;51.312;7.378;2023-01-04T08:11:08;1.50;;;0.90;;
5871;SDS011;2962;51.312;7.378;2023-01-04T08:13:35;1.07;;;0.93;;
5871;SDS011;2962;51.312;7.378;2023-01-04T08:16:00;0.90;;;0.90;;
5871;SDS011;2962;51.312;7.378;2023-01-04T08:18:26;4.80;;;1.20;;
5871;SDS011;2962;51.312;7.378;2023-01-04T08:21:01;0.80;;;0.80;;
5871;SDS011;2962;51.312;7.378;2023-01-04T08:23:29;0.80;;;0.80;;
5871;SDS011;2962;51.312;7.378;2023-01-04T08:25:55;1.00;;;1.00;;
5871;SDS011;2962;51.312;7.378;2023-01-04T08:28:20;0.83;;;0.83;;
5871;SDS011;2962;51.312;7.378;2023-01-04T08:30:45;0.80;;;0.80;;
5871;SDS011;2962;51.312;7.378;2023-01-04T08:33:14;0.50;;;0.50;;
5871;SDS011;2962;51.312;7.378;2023-01-04T08:35:40;1.80;;;0.80;;
5871;SDS011;2962;51.312;7.378;2023-01-04T08:38:05;1.20;;;0.70;;
5871;SDS011;2962;51.312;7.378;2023-01-04T08:40:30;0.80;;;0.80;;
5871;SDS011;2962;51.312;7.378;2023-01-04T08:42:55;2.93;;;0.80;;
5871;SDS011;2962;51.312;7.378;2023-01-04T08:45:21;0.57;;;0.57;;
5871;SDS011;2962;51.312;7.378;2023-01-04T08:47:46;0.50;;;0.50;;
5871;SDS011;2962;51.312;7.378;2023-01-04T08:50:11;2.10;;;0.83;;
5871;SDS011;2962;51.312;7.378;2023-01-04T08:52:38;0.93;;;0.90;;
5871;SDS011;2962;51.312;7.378;2023-01-04T08:55:03;4.17;;;3.87;;
5871;SDS011;2962;51.312;7.378;2023-01-04T08:57:29;1.13;;;0.90;;
5871;SDS011;2962;51.312;7.378;2023-01-04T08:59:54;0.93;;;0.93;;
5871;SDS011;2962;51.312;7.378;2023-01-04T09:02:21;1.87;;;1.77;;
5871;SDS011;2962;51.312;7.378;2023-01-04T09:04:48;2.10;;;2.00;;
5871;SDS011;2962;51.312;7.378;2023-01-04T09:07:14;1.50;;;1.50;;
5871;SDS011;2962;51.312;7.378;2023-01-04T09:09:40;3.03;;;1.90;;
5871;SDS011;2962;51.312;7.378;2023-01-04T09:12:05;3.20;;;3.00;;
5871;SDS011;2962;51.312;7.378;2023-01-04T09:14:30;1.00;;;1.00;;
5871;SDS011;2962;51.312;7.378;2023-01-04T09:16:56;3.20;;;3.00;;
5871;SDS011;2962;51.312;7.378;2023-01-04T09:19:21;1.20;;;1.20;;
5871;SDS011;2962;51.312;7.378;2023-01-04T09:21:47;1.50;;;1.50;;
5871;SDS011;2962;51.312;7.378;2023-01-04T09:24:12;1.50;;;1.50;;
5871;SDS011;2962;51.312;7.378;2023-01-04T09:26:38;2.13;;;2.13;;
5871;SDS011;2962;51.312;7.378;2023-01-04T09:29:03;1.20;;;1.00;;
5871;SDS011;2962;51.312;7.378;2023-01-04T09:31:29;0.90;;;0.90;;
5871;SDS011;2962;51.312;7.378;2023-01-04T09:33:55;1.40;;;1.00;;
5871;SDS011;2962;51.312;7.378;2023-01-04T09:36:21;1.33;;;1.33;;
5871;SDS011;2962;51.312;7.378;2023-01-04T09:38:48;2.90;;;2.70;;
5871;SDS011;2962;51.312;7.378;2023-01-04T09:44:02;1.33;;;1.33;;
5871;SDS011;2962;51.312;7.378;2023-01-04T09:49:21;1.00;;;0.83;;
5871;SDS011;2962;51.312;7.378;2023-01-04T09:54:49;3.93;;;3.57;;
5871;SDS011;2962;51.312;7.378;2023-01-04T09:57:23;2.07;;;1.90;;
5871;SDS011;2962;51.312;7.378;2023-01-04T10:00:02;2.63;;;1.30;;
5871;SDS011;2962;51.312;7.378;2023-01-04T10:02:38;2.67;;;2.13;;
5871;SDS011;2962;51.312;7.378;2023-01-04T10:05:06;1.00;;;1.00;;
5871;SDS011;2962;51.312;7.378;2023-01-04T10:07:37;0.43;;;0.43;;
5871;SDS011;2962;51.312;7.378;2023-01-04T10:10:03;0.80;;;0.80;;
5871;SDS011;2962;51.312;7.378;2023-01-04T10:12:42;0.93;;;0.93;;
5871;SDS011;2962;51.312;7.378;2023-01-04T10:20:40;0.70;;;0.70;;
5871;SDS011;2962;51.312;7.378;2023-01-04T10:26:23;0.70;;;0.70;;
5871;SDS011;2962;51.312;7.378;2023-01-04T10:29:36;0.67;;;0.53;;
5871;SDS011;2962;51.312;7.378;2023-01-04T10:32:04;0.77;;;0.77;;
5871;SDS011;2962;51.312;7.378;2023-01-04T10:34:40;2.20;;;0.63;;
5871;SDS011;2962;51.312;7.378;2023-01-04T10:37:12;0.70;;;0.70;;
5871;SDS011;2962;51.312;7.378;2023-01-04T10:39:44;0.87;;;0.53;;
5871;SDS011;2962;51.312;7.378;2023-01-04T10:45:12;0.73;;;0.73;;
5871;SDS011;2962;51.312;7.378;2023-01-04T10:47:44;1.07;;;0.67;;
5871;SDS011;2962;51.312;7.378;2023-01-04T10:50:24;0.70;;;0.70;;
5871;SDS011;2962;51.312;7.378;2023-01-04T10:55:26;0.70;;;0.70;;
5871;SDS011;2962;51.312;7.378;2023-01-04T10:57:58;0.53;;;0.53;;
5871;SDS011;2962;51.312;7.378;2023-01-04T11:03:18;1.07;;;0.90;;
5871;SDS011;2962;51.312;7.378;2023-01-04T11:06:02;1.33;;;1.23;;
5871;SDS011;2962;51.312;7.378;2023-01-04T11:08:37;0.80;;;0.80;;
5871;SDS011;2962;51.312;7.378;2023-01-04T11:11:10;0.63;;;0.63;;
5871;SDS011;2962;51.312;7.378;2023-01-04T11:13:38;1.70;;;0.70;;
5871;SDS011;2962;51.312;7.378;2023-01-04T11:16:04;1.17;;;0.83;;
5871;SDS011;2962;51.312;7.378;2023-01-04T11:18:30;1.07;;;1.03;;
5871;SDS011;2962;51.312;7.378;2023-01-04T11:20:57;1.60;;;0.97;;
5871;SDS011;2962;51.312;7.378;2023-01-04T11:23:22;1.37;;;1.20;;
5871;SDS011;2962;51.312;7.378;2023-01-04T11:26:22;4.43;;;2.07;;
5871;SDS011;2962;51.312;7.378;2023-01-04T11:28:59;7.47;;;2.50;;
5871;SDS011;2962;51.312;7.378;2023-01-04T11:31:41;2.13;;;2.03;;
5871;SDS011;2962;51.312;7.378;2023-01-04T11:34:11;1.43;;;1.10;;
5871;SDS011;2962;51.312;7.378;2023-01-04T11:36:38;3.20;;;3.00;;
5871;SDS011;2962;51.312;7.378;2023-01-04T11:39:06;3.13;;;2.70;;
5871;SDS011;2962;51.312;7.378;2023-01-04T11:41:54;2.00;;;2.00;;
5871;SDS011;2962;51.312;7.378;2023-01-04T11:44:24;1.57;;;1.00;;
5871;SDS011;2962;51.312;7.378;2023-01-04T11:49:43;0.87;;;0.87;;
5871;SDS011;2962;51.312;7.378;2023-01-04T11:57:40;4.00;;;0.90;;
5871;SDS011;2962;51.312;7.378;2023-01-04T12:00:06;0.80;;;0.80;;
5871;SDS011;2962;51.312;7.378;2023-01-04T12:02:33;1.90;;;1.37;;
5871;SDS011;2962;51.312;7.378;2023-01-04T12:04:58;1.90;;;1.80;;
5871;SDS011;2962;51.312;7.378;2023-01-04T12:07:31;3.13;;;1.27;;
5871;SDS011;2962;51.312;7.378;2023-01-04T12:09:58;1.03;;;0.93;;
5871;SDS011;2962;51.312;7.378;2023-01-04T12:12:28;1.90;;;1.73;;
5871;SDS011;2962;51.312;7.378;2023-01-04T12:14:58;1.07;;;1.07;;
5871;SDS011;2962;51.312;7.378;2023-01-04T12:17:34;1.27;;;1.13;;
5871;SDS011;2962;51.312;7.378;2023-01-04T12:20:13;1.53;;;1.10;;
5871;SDS011;2962;51.312;7.378;2023-01-04T12:22:41;4.63;;;1.37;;
5871;SDS011;2962;51.312;7.378;2023-01-04T12:25:08;1.57;;;1.47;;
5871;SDS011;2962;51.312;7.378;2023-01-04T12:27:49;1.20;;;1.20;;
5871;SDS011;2962;51.312;7.378;2023-01-04T12:36:00;1.27;;;1.27;;
5871;SDS011;2962;51.312;7.378;2023-01-04T12:38:55;0.80;;;0.80;;
5871;SDS011;2962;51.312;7.378;2023-01-04T12:41:15;5.87;;;1.97;;
5871;SDS011;2962;51.312;7.378;2023-01-04T12:43:41;1.37;;;1.27;;
5871;SDS011;2962;51.312;7.378;2023-01-04T12:46:51;1.40;;;1.30;;
5871;SDS011;2962;51.312;7.378;2023-01-04T13:02:44;0.93;;;0.93;;
5871;SDS011;2962;51.312;7.378;2023-01-04T13:19:03;2.00;;;1.20;;
5871;SDS011;2962;51.312;7.378;2023-01-04T13:21:45;1.23;;;1.23;;
5871;SDS011;2962;51.312;7.378;2023-01-04T13:26:45;1.57;;;1.57;;
5871;SDS011;2962;51.312;7.378;2023-01-04T13:32:39;2.93;;;2.90;;
5871;SDS011;2962;51.312;7.378;2023-01-04T13:34:48;2.43;;;2.43;;
5871;SDS011;2962;51.312;7.378;2023-01-04T13:37:24;1.50;;;1.50;;
5871;SDS011;2962;51.312;7.378;2023-01-04T13:42:42;2.50;;;2.50;;
5871;SDS011;2962;51.312;7.378;2023-01-04T13:47:51;2.80;;;2.80;;
5871;SDS011;2962;51.312;7.378;2023-01-04T13:53:01;1.60;;;1.60;;
5871;SDS011;2962;51.312;7.378;2023-01-04T13:55:31;1.70;;;1.70;;
5871;SDS011;2962;51.312;7.378;2023-01-04T13:57:59;2.27;;;2.27;;
5871;SDS011;2962;51.312;7.378;2023-01-04T14:00:28;1.27;;;1.27;;
5871;SDS011;2962;51.312;7.378;2023-01-04T14:03:09;1.00;;;1.00;;
5871;SDS011;2962;51.312;7.378;2023-01-04T14:05:45;2.37;;;2.37;;
5871;SDS011;2962;51.312;7.378;2023-01-04T14:08:13;1.93;;;1.93;;
5871;SDS011;2962;51.312;7.378;2023-01-04T14:10:44;2.50;;;2.50;;
5871;SDS011;2962;51.312;7.378;2023-01-04T14:13:13;2.03;;;2.03;;
5871;SDS011;2962;51.312;7.378;2023-01-04T14:15:41;2.00;;;2.00;;
5871;SDS011;2962;51.312;7.378;2023-01-04T14:18:22;4.57;;;2.00;;
5871;SDS011;2962;51.312;7.378;2023-01-04T14:20:51;2.03;;;2.00;;
5871;SDS011;2962;51.312;7.378;2023-01-04T14:23:32;1.90;;;1.90;;
5871;SDS011;2962;51.312;7.378;2023-01-04T14:25:59;2.10;;;2.00;;
5871;SDS011;2962;51.312;7.378;2023-01-04T14:28:26;1.57;;;1.57;;
5871;SDS011;2962;51.312;7.378;2023-01-04T14:38:34;2.13;;;2.13;;
5871;SDS011;2962;51.312;7.378;2023-01-04T14:43:48;1.47;;;1.47;;
5871;SDS011;2962;51.312;7.378;2023-01-04T14:46:17;1.90;;;1.40;;
5871;SDS011;2962;51.312;7.378;2023-01-04T14:48:43;2.83;;;2.83;;
5871;SDS011;2962;51.312;7.378;2023-01-04T14:51:09;3.03;;;3.03;;
5871;SDS011;2962;51.312;7.378;2023-01-04T14:53:39;2.27;;;2.27;;
5871;SDS011;2962;51.312;7.378;2023-01-04T14:56:04;3.70;;;2.20;;
5871;SDS011;2962;51.312;7.378;2023-01-04T14:58:30;3.20;;;3.10;;
5871;SDS011;2962;51.312;7.378;2023-01-04T15:00:55;2.50;;;2.50;;
5871;SDS011;2962;51.312;7.378;2023-01-04T15:03:20;2.10;;;2.10;;
5871;SDS011;2962;51.312;7.378;2023-01-04T15:05:46;1.70;;;1.70;;
5871;SDS011;2962;51.312;7.378;2023-01-04T15:08:11;1.23;;;1.23;;
5871;SDS011;2962;51.312;7.378;2023-01-04T15:10:37;1.20;;;1.20;;
5871;SDS011;2962;51.312;7.378;2023-01-04T15:13:03;1.30;;;1.30;;
5871;SDS011;2962;51.312;7.378;2023-01-04T15:15:29;1.43;;;1.13;;
5871;SDS011;2962;51.312;7.378;2023-01-04T15:17:54;0.83;;;0.83;;
5871;SDS011;2962;51.312;7.378;2023-01-04T15:20:20;0.70;;;0.70;;
5871;SDS011;2962;51.312;7.378;2023-01-04T15:22:45;1.20;;;1.20;;
5871;SDS011;2962;51.312;7.378;2023-01-04T15:25:10;0.80;;;0.80;;
5871;SDS011;2962;51.312;7.378;2023-01-04T15:27:36;0.40;;;0.40;;
5871;SDS011;2962;51.312;7.378;2023-01-04T15:30:01;0.83;;;0.83;;
5871;SDS011;2962;51.312;7.378;2023-01-04T15:32:27;0.50;;;0.30;;
5871;SDS011;2962;51.312;7.378;2023-01-04T15:34:52;0.90;;;0.90;;
5871;SDS011;2962;51.312;7.378;2023-01-04T15:37:18;0.77;;;0.77;;
5871;SDS011;2962;51.312;7.378;2023-01-04T15:39:45;2.00;;;1.00;;
5871;SDS011;2962;51.312;7.378;2023-01-04T15:42:11;0.90;;;0.90;;
5871;SDS011;2962;51.312;7.378;2023-01-04T15:44:55;0.93;;;0.93;;
5871;SDS011;2962;51.312;7.378;2023-01-04T15:47:20;1.40;;;1.30;;
5871;SDS011;2962;51.312;7.378;2023-01-04T15:49:46;1.10;;;1.00;;
5871;SDS011;2962;51.312;7.378;2023-01-04T15:52:11;2.20;;;0.90;;
5871;SDS011;2962;51.312;7.378;2023-01-04T15:54:36;2.33;;;0.90;;
5871;SDS011;2962;51.312;7.378;2023-01-04T15:57:01;2.00;;;0.97;;
5871;SDS011;2962;51.312;7.378;2023-01-04T15:59:27;1.53;;;1.20;;
5871;SDS011;2962;51.312;7.378;2023-01-04T16:01:52;3.83;;;1.87;;
5871;SDS011;2962;51.312;7.378;2023-01-04T16:04:18;2.63;;;1.50;;
5871;SDS011;2962;51.312;7.378;2023-01-04T16:06:43;0.97;;;0.93;;
5871;SDS011;2962;51.312;7.378;2023-01-04T16:09:09;1.27;;;1.17;;
5871;SDS011;2962;51.312;7.378;2023-01-04T16:11:34;1.23;;;1.13;;
5871;SDS011;2962;51.312;7.378;2023-01-04T16:13:59;2.97;;;1.40;;
5871;SDS011;2962;51.312;7.378;2023-01-04T16:16:26;4.23;;;1.10;;
5871;SDS011;2962;51.312;7.378;2023-01-04T16:18:53;2.00;;;1.40;;
5871;SDS011;2962;51.312;7.378;2023-01-04T16:21:23;3.13;;;1.53;;
5871;SDS011;2962;51.312;7.378;2023-01-04T16:23:51;4.63;;;1.00;;
5871;SDS011;2962;51.312;7.378;2023-01-04T16:26:17;1.67;;;1.57;;
5871;SDS011;2962;51.312;7.378;2023-01-04T16:28:47;2.10;;;1.60;;
5871;SDS011;2962;51.312;7.378;2023-01-04T16:31:14;1.77;;;1.67;;
5871;SDS011;2962;51.312;7.378;2023-01-04T16:33:39;2.93;;;1.53;;
5871;SDS011;2962;51.312;7.378;2023-01-04T16:36:07;3.80;;;1.70;;
5871;SDS011;2962;51.312;7.378;2023-01-04T16:38:36;5.73;;;1.57;;
5871;SDS011;2962;51.312;7.378;2023-01-04T16:41:03;3.50;;;1.53;;
5871;SDS011;2962;51.312;7.378;2023-01-04T16:43:29;2.77;;;2.03;;
5871;SDS011;2962;51.312;7.378;2023-01-04T16:46:12;3.60;;;1.20;;
5871;SDS011;2962;51.312;7.378;2023-01-04T16:48:49;2.20;;;1.40;;
5871;SDS011;2962;51.312;7.378;2023-01-04T16:51:16;1.77;;;1.27;;
5871;SDS011;2962;51.312;7.378;2023-01-04T16:53:42;1.83;;;1.73;;
5871;SDS011;2962;51.312;7.378;2023-01-04T16:56:09;6.80;;;2.40;;
5871;SDS011;2962;51.312;7.378;2023-01-04T16:58:35;2.20;;;2.10;;
5871;SDS011;2962;51.312;7.378;2023-01-04T17:01:05;3.30;;;2.80;;
5871;SDS011;2962;51.312;7.378;2023-01-04T17:03:34;1.63;;;1.63;;
5871;SDS011;2962;51.312;7.378;2023-01-04T17:06:03;0.77;;;0.77;;
5871;SDS011;2962;51.312;7.378;2023-01-04T17:08:33;1.90;;;1.10;;
5871;SDS011;2962;51.312;7.378;2023-01-04T17:11:02;1.63;;;1.30;;
5871;SDS011;2962;51.312;7.378;2023-01-04T17:13:29;1.33;;;1.33;;
5871;SDS011;2962;51.312;7.378;2023-01-04T17:15:57;1.70;;;1.70;;
5871;SDS011;2962;51.312;7.378;2023-01-04T17:18:23;1.53;;;1.53;;
5871;SDS011;2962;51.312;7.378;2023-01-04T17:20:54;1.43;;;1.43;;